Turlock, California
Current Conditions -  °F | °C
As of 1:53 PM on Friday 24 Oct 2014 (Local Time) from KMOD Reporting Station
Clear Clear  
Wind Chill: 75°   Ceiling: Unl
Heat Index: 75°   Visibility: 10mi
Dew Point: 52°   Wind: 8mph
Humidity: 44%   Direction: 130°SE
Pressure: 29.89"   Gusts: NA
Location:  37.5°N, 120.84°W
Report Text: KMOD 242053Z 13007KT 10SM CLR 24/11 A2989 RMK AO2 SLP121 T02390111 58030
Loading
Personal Weather Stations






























Interactive Weather Map
Tropical Storm Tracking
New forecast layout! Learn more

10-Day Weather Forecast

Advertisements
Track Severe Weather on mobile